Airfield :
LOGIN :

Register | Disclaimer

   EN    FR    IT 

 










Legend :    VFR   Marginal VFR   IFR   Intensive IFR   Very Intensive IFR
Visi :
Ceiling :
>= 8 km
>= 3000ft
5 to 8 km
1000 to 3000 ft
1500m to 5 km
500 to 1000 ft
800 to 1500m
200 to 500 ft
< 800m
< 200 ft
Symbols :   Thunderstorms  Fog  Heavy snow  Heavy precipitations  Wind > 20 kt
SIGMETs :     Misc.  Thunderstorms  Icing  Turbulence  Mountain Waves  Volcanic Ashes






- Airport Elevation : 1306 ft
- IATA code : ACH


LSZR - Alten Rhein

CURRENT METAR :
  • 290420Z VRB02KT 9999 FEW050 SCT060 BKN080 17/16 Q1017 NOSIG RMK A

EXPIRED METARs :
  • 290350Z AUTO 11003KT 9999 BKN055 BKN080 15/15 Q1017
  • 290320Z AUTO VRB03KT 9999 BKN080 15/15 Q1017
  • 290250Z AUTO VRB02KT 9999 OVC080 16/16 Q1017
  • 290220Z AUTO VRB02KT 9999 NCD 16/16 Q1017
  • 290150Z AUTO VRB02KT 9999 SCT060 16/16 Q1017

TAF TAF LSZR
Valid from the 29 at 03:00 until the 29 at 12:00 UTC


290225Z 2903/2912 VRB02KT 9999 SCT060
ATIS : +41 71 858 51 66



MET'MAP, your aeronautical weather chart ! - Copyright ORBIFLY December 2007 - Disclaimer

ORBIFLY MET'MAP TEAM :

Programming & Development : Alexandra Zaïnal
Concept & original design : Baudouin d'Aumeries
Assistance for programming : Marc-Olivier Méhu
Technical & hardware support : Manuel Goepfert

Contact : metmap@orbifly.com




SOURCES & CREDITS :

   NOAA